createdAt,value
2017-11-28T00:01:22.288Z,100167.17
2017-11-28T00:03:54.731Z,100162.06
2017-11-28T00:06:26.429Z,100161.80
2017-11-28T00:08:57.895Z,100151.00
2017-11-28T00:11:29.344Z,100145.63
2017-11-28T00:14:01.204Z,100149.13
2017-11-28T00:16:32.631Z,100131.78
2017-11-28T00:19:04.346Z,100142.79
2017-11-28T00:21:36.057Z,100135.36
2017-11-28T00:24:07.532Z,100132.25
2017-11-28T00:26:38.939Z,100133.80
2017-11-28T00:29:10.494Z,100121.62
2017-11-28T00:31:41.938Z,100115.81
2017-11-28T00:34:13.538Z,100108.34
2017-11-28T00:36:45.204Z,100110.53
2017-11-28T00:39:16.578Z,100113.92
2017-11-28T00:41:49.509Z,100112.58
2017-11-28T00:44:21.242Z,100098.06
2017-11-28T00:46:52.721Z,100101.66
2017-11-28T00:49:24.191Z,100105.09
2017-11-28T00:51:55.954Z,100088.84
2017-11-28T00:54:27.727Z,100088.83
2017-11-28T00:56:59.189Z,100093.72
2017-11-28T00:59:31.751Z,100086.83
2017-11-28T01:02:04.333Z,100081.20
2017-11-28T01:04:35.768Z,100079.38
2017-11-28T01:07:07.491Z,100086.59
2017-11-28T01:09:39.174Z,100083.79
2017-11-28T01:12:10.722Z,100079.98
2017-11-28T01:14:42.434Z,100079.09
2017-11-28T01:17:13.888Z,100067.39
2017-11-28T01:19:45.283Z,100074.00
2017-11-28T01:22:16.997Z,100061.14
2017-11-28T01:24:48.536Z,100058.70
2017-11-28T01:27:20.102Z,100054.25
2017-11-28T01:29:51.765Z,100059.22
2017-11-28T01:32:23.476Z,100055.30
2017-11-28T01:34:54.973Z,100044.98
2017-11-28T01:37:26.697Z,100046.95
2017-11-28T01:39:58.425Z,100051.33
2017-11-28T01:42:29.996Z,100044.36
2017-11-28T01:45:01.533Z,100036.95
2017-11-28T01:47:33.341Z,100034.20
2017-11-28T01:50:06.156Z,100032.80
2017-11-28T01:52:37.690Z,100022.70
2017-11-28T01:55:09.366Z,100020.89
2017-11-28T01:57:41.646Z,100014.83
2017-11-28T02:00:13.771Z,100008.98
2017-11-28T02:02:45.202Z,100011.94
2017-11-28T02:05:17.060Z,100015.00
2017-11-28T02:07:48.494Z,99998.63
2017-11-28T02:10:20.005Z,99998.90
2017-11-28T02:12:51.639Z,99998.79
2017-11-28T02:15:23.042Z,99995.16
2017-11-28T02:17:54.435Z,99992.27
2017-11-28T02:20:25.898Z,99984.11
2017-11-28T02:22:58.892Z,99976.77
2017-11-28T02:25:31.694Z,99963.80
2017-11-28T02:28:04.638Z,99973.78
2017-11-28T02:30:36.269Z,99969.94
2017-11-28T02:33:08.284Z,99966.20
2017-11-28T02:35:39.758Z,99953.80
2017-11-28T02:38:11.427Z,99945.88
2017-11-28T02:40:51.675Z,99952.84
2017-11-28T02:43:23.102Z,99950.05
2017-11-28T02:45:54.500Z,99935.29
2017-11-28T02:48:26.273Z,99934.44
2017-11-28T02:50:57.882Z,99928.50
2017-11-28T02:53:29.577Z,99934.31
2017-11-28T02:56:01.398Z,99930.92
2017-11-28T02:58:32.868Z,99931.87
2017-11-28T03:01:04.985Z,99925.48
2017-11-28T03:03:37.046Z,99911.12
2017-11-28T03:06:08.594Z,99920.93
2017-11-28T03:08:40.972Z,99915.28
2017-11-28T03:11:12.344Z,99915.67
2017-11-28T03:13:44.079Z,99913.72
2017-11-28T03:16:15.520Z,99909.90
2017-11-28T03:18:47.022Z,99912.68
2017-11-28T03:21:18.895Z,99908.92
2017-11-28T03:23:50.437Z,99911.83
2017-11-28T03:26:21.947Z,99893.75
2017-11-28T03:28:53.821Z,99892.43
2017-11-28T03:31:25.493Z,99889.17
2017-11-28T03:34:00.598Z,99884.48
2017-11-28T03:36:33.587Z,99881.00
2017-11-28T03:39:05.723Z,99878.84
2017-11-28T03:41:37.713Z,99881.55
2017-11-28T03:44:09.802Z,99877.62
2017-11-28T03:46:42.593Z,99877.64
2017-11-28T03:49:15.422Z,99870.27
2017-11-28T03:51:48.108Z,99867.83
2017-11-28T03:54:20.261Z,99870.34
2017-11-28T03:56:51.935Z,99871.34
2017-11-28T03:59:23.498Z,99862.64
2017-11-28T04:01:55.205Z,99865.67
2017-11-28T04:04:26.691Z,99860.77
2017-11-28T04:06:58.147Z,99864.89
2017-11-28T04:09:29.819Z,99861.41
2017-11-28T04:12:03.285Z,99858.88
2017-11-28T04:14:34.685Z,99855.65
2017-11-28T04:17:06.482Z,99850.58
2017-11-28T04:19:37.890Z,99850.70
2017-11-28T04:22:09.354Z,99844.97
2017-11-28T04:24:41.486Z,99846.82
2017-11-28T04:27:12.910Z,99851.10
2017-11-28T04:29:45.548Z,99848.73
2017-11-28T04:32:18.063Z,99850.55
2017-11-28T04:34:49.974Z,99848.13
2017-11-28T04:37:21.457Z,99842.44
2017-11-28T04:39:52.886Z,99845.14
2017-11-28T04:42:24.315Z,99838.63
2017-11-28T04:44:55.737Z,99844.34
2017-11-28T04:47:27.540Z,99846.64
2017-11-28T04:49:58.980Z,99836.89
2017-11-28T04:52:30.601Z,99836.45
2017-11-28T04:55:02.127Z,99839.16
2017-11-28T04:57:33.879Z,99843.52
2017-11-28T05:00:06.140Z,99836.94
2017-11-28T05:02:38.267Z,99841.95
2017-11-28T05:05:10.004Z,99839.09
2017-11-28T05:07:42.410Z,99835.64
2017-11-28T05:10:15.874Z,99841.37
2017-11-28T05:12:47.600Z,99834.11
2017-11-28T05:15:19.055Z,99841.48
2017-11-28T05:17:51.297Z,99834.72
2017-11-28T05:20:22.735Z,99835.92
2017-11-28T05:22:55.838Z,99844.02
2017-11-28T05:25:27.765Z,99832.11
2017-11-28T05:27:59.462Z,99835.06
2017-11-28T05:30:31.206Z,99827.39
2017-11-28T05:33:03.335Z,99828.95
2017-11-28T05:35:35.095Z,99822.58
2017-11-28T05:38:07.536Z,99829.88
2017-11-28T05:40:38.949Z,99828.95
2017-11-28T05:43:10.931Z,99835.84
2017-11-28T05:45:42.917Z,99831.02
2017-11-28T05:48:14.859Z,99828.80
2017-11-28T05:50:46.278Z,99833.16
2017-11-28T05:53:17.735Z,99826.88
2017-11-28T05:55:49.444Z,99826.19
2017-11-28T05:58:20.901Z,99835.30
2017-11-28T06:00:53.131Z,99835.39
2017-11-28T06:03:24.915Z,99830.98
2017-11-28T06:05:57.757Z,99824.66
2017-11-28T06:08:29.294Z,99825.69
2017-11-28T06:11:01.276Z,99828.06
2017-11-28T06:13:33.630Z,99822.56
2017-11-28T06:16:06.081Z,99824.66
2017-11-28T06:18:39.257Z,99824.38
2017-11-28T06:21:11.473Z,99818.87
2017-11-28T06:23:43.950Z,99824.31
2017-11-28T06:26:15.691Z,99822.33
2017-11-28T06:28:47.239Z,99816.84
2017-11-28T06:31:18.687Z,99816.03
2017-11-28T06:33:50.324Z,99822.96
2017-11-28T06:36:22.137Z,99818.87
2017-11-28T06:38:53.651Z,99824.78
2017-11-28T06:41:25.105Z,99820.25
2017-11-28T06:43:57.114Z,99823.91
2017-11-28T06:46:28.925Z,99832.53
2017-11-28T06:49:00.502Z,99828.08
2017-11-28T06:51:32.417Z,99817.27
2017-11-28T06:54:05.803Z,99821.48
2017-11-28T06:56:38.042Z,99825.94
2017-11-28T06:59:09.518Z,99826.27
2017-11-28T07:01:41.120Z,99823.48
2017-11-28T07:06:48.455Z,99822.70
2017-11-28T07:09:19.906Z,99825.81
2017-11-28T07:11:51.871Z,99818.75
2017-11-28T07:14:23.291Z,99823.84
2017-11-28T07:16:54.721Z,99826.59
2017-11-28T07:19:26.624Z,99823.11
2017-11-28T07:21:58.036Z,99822.78
2017-11-28T07:24:29.688Z,99823.02
2017-11-28T07:27:01.346Z,99824.56
2017-11-28T07:29:33.869Z,99823.66
2017-11-28T07:32:06.112Z,99826.64
2017-11-28T07:34:37.645Z,99822.10
2017-11-28T07:37:09.401Z,99828.67
2017-11-28T07:39:41.060Z,99834.47
2017-11-28T07:42:13.208Z,99842.11
2017-11-28T07:44:44.928Z,99838.07
2017-11-28T07:47:16.397Z,99846.02
2017-11-28T07:49:47.869Z,99848.10
2017-11-28T07:52:19.357Z,99851.94
2017-11-28T07:54:50.781Z,99856.88
2017-11-28T07:57:23.309Z,99857.34
2017-11-28T07:59:54.764Z,99862.72
2017-11-28T08:02:26.809Z,99861.87
2017-11-28T08:04:58.225Z,99864.63
2017-11-28T08:07:30.003Z,99867.09
2017-11-28T08:10:02.645Z,99867.38
2017-11-28T08:12:34.100Z,99867.25
2017-11-28T08:15:05.583Z,99867.22
2017-11-28T08:17:37.082Z,99864.23
2017-11-28T08:20:08.645Z,99867.75
2017-11-28T08:22:40.517Z,99864.85
2017-11-28T08:25:12.079Z,99875.80
2017-11-28T08:27:43.609Z,99868.72
2017-11-28T08:30:15.358Z,99864.70
2017-11-28T08:32:48.155Z,99868.15
2017-11-28T08:35:20.132Z,99870.22
2017-11-28T08:37:52.987Z,99868.72
2017-11-28T08:40:25.735Z,99870.56
2017-11-28T08:42:57.292Z,99875.76
2017-11-28T08:45:29.251Z,99875.66
2017-11-28T08:48:00.939Z,99872.36
2017-11-28T08:50:33.962Z,99878.23
2017-11-28T08:53:05.707Z,99877.19
2017-11-28T08:55:38.206Z,99883.61
2017-11-28T09:00:47.169Z,99887.39
2017-11-28T09:03:18.592Z,99883.58
2017-11-28T09:05:52.003Z,99889.18
2017-11-28T09:08:24.181Z,99892.09
2017-11-28T09:10:55.640Z,99902.37
2017-11-28T09:13:27.090Z,99905.99
2017-11-28T09:15:58.933Z,99904.19
2017-11-28T09:18:32.180Z,99906.66
2017-11-28T09:21:04.001Z,99913.83
2017-11-28T09:23:35.575Z,99918.25
2017-11-28T09:26:07.193Z,99916.02
2017-11-28T09:28:40.124Z,99906.16
2017-11-28T09:31:11.814Z,99910.84
2017-11-28T09:33:44.284Z,99919.63
2017-11-28T09:36:16.275Z,99917.98
2017-11-28T09:38:47.998Z,99919.31
2017-11-28T09:41:33.612Z,99915.19
2017-11-28T09:44:44.269Z,99902.87
2017-11-28T09:47:35.460Z,99910.13
2017-11-28T09:50:29.676Z,99906.66
2017-11-28T09:53:13.324Z,99911.66
2017-11-28T09:56:24.634Z,99906.88
2017-11-28T09:59:13.930Z,99917.58
2017-11-28T10:01:54.422Z,99911.42
2017-11-28T10:04:40.045Z,99904.13
2017-11-28T10:07:21.975Z,99920.59
2017-11-28T10:10:25.411Z,99919.14
2017-11-28T10:13:12.952Z,99915.78
2017-11-28T10:16:06.585Z,99917.44
2017-11-28T10:19:02.208Z,99918.16
2017-11-28T10:21:52.506Z,99912.08
2017-11-28T10:24:31.912Z,99908.15
2017-11-28T10:27:31.175Z,99903.72
2017-11-28T10:33:15.151Z,99896.58
2017-11-28T10:36:33.033Z,99887.25
2017-11-28T10:39:05.098Z,99884.51
2017-11-28T10:41:36.513Z,99881.28
2017-11-28T10:44:08.445Z,99885.77
2017-11-28T10:46:41.081Z,99883.54
2017-11-28T10:49:12.585Z,99886.03
2017-11-28T10:51:44.139Z,99881.20
2017-11-28T10:54:15.981Z,99876.59
2017-11-28T10:56:47.599Z,99880.63
2017-11-28T10:59:19.365Z,99879.02
2017-11-28T11:01:50.835Z,99885.27
2017-11-28T11:04:22.407Z,99893.31
2017-11-28T11:06:54.321Z,99885.22
2017-11-28T11:09:25.755Z,99881.88
2017-11-28T11:11:57.250Z,99872.17
2017-11-28T11:14:29.220Z,99876.59
2017-11-28T11:17:00.890Z,99877.42
2017-11-28T11:19:32.501Z,99885.95
2017-11-28T11:22:05.414Z,99885.82
2017-11-28T11:24:37.532Z,99887.70
2017-11-28T11:27:08.935Z,99882.04
2017-11-28T11:29:40.657Z,99873.22
2017-11-28T11:32:12.324Z,99868.94
2017-11-28T11:34:43.705Z,99864.24
2017-11-28T11:37:15.508Z,99865.67
2017-11-28T11:39:47.013Z,99863.83
2017-11-28T11:42:18.583Z,99862.84
2017-11-28T11:44:50.321Z,99859.14
2017-11-28T11:47:21.733Z,99852.30
2017-11-28T11:49:53.172Z,99853.70
2017-11-28T11:52:24.903Z,99853.81
2017-11-28T11:54:56.376Z,99858.27
2017-11-28T11:57:28.385Z,99858.67
2017-11-28T11:59:59.800Z,99849.17
2017-11-28T12:02:31.789Z,99850.75
2017-11-28T12:05:03.855Z,99849.45
2017-11-28T12:07:35.587Z,99830.50
2017-11-28T12:10:07.751Z,99834.04
2017-11-28T12:12:39.318Z,99829.35
2017-11-28T12:15:10.950Z,99828.42
2017-11-28T12:17:42.498Z,99833.42
2017-11-28T12:20:14.469Z,99829.30
2017-11-28T12:22:46.269Z,99839.39
2017-11-28T12:25:17.804Z,99836.13
2017-11-28T12:27:50.159Z,99831.86
2017-11-28T12:30:22.074Z,99822.48
2017-11-28T12:32:53.569Z,99816.32
2017-11-28T12:35:25.689Z,99819.19
2017-11-28T12:37:57.182Z,99811.04
2017-11-28T12:40:29.287Z,99810.41
2017-11-28T12:43:01.639Z,99808.31
2017-11-28T12:45:33.236Z,99808.14
2017-11-28T12:48:06.259Z,99807.48
2017-11-28T12:50:38.128Z,99801.38
2017-11-28T12:53:09.874Z,99802.76
2017-11-28T12:55:41.369Z,99801.69
2017-11-28T12:58:14.757Z,99800.91
2017-11-28T13:00:46.583Z,99801.72
2017-11-28T13:03:18.075Z,99802.00
2017-11-28T13:05:50.175Z,99801.58
2017-11-28T13:08:22.013Z,99799.53
2017-11-28T13:10:53.709Z,99794.11
2017-11-28T13:13:26.309Z,99788.77
2017-11-28T13:15:58.130Z,99792.80
2017-11-28T13:18:30.109Z,99786.65
2017-11-28T13:21:02.309Z,99785.13
2017-11-28T13:23:35.730Z,99787.56
2017-11-28T13:26:07.736Z,99788.64
2017-11-28T13:28:39.526Z,99788.30
2017-11-28T13:31:11.626Z,99788.97
2017-11-28T13:33:43.170Z,99788.09
2017-11-28T13:36:15.824Z,99789.42
2017-11-28T13:38:47.513Z,99781.78
2017-11-28T13:41:20.030Z,99779.80
2017-11-28T13:43:51.859Z,99770.54
2017-11-28T13:49:19.856Z,99772.75
2017-11-28T13:51:51.973Z,99776.84
2017-11-28T13:54:23.704Z,99762.49
2017-11-28T13:56:56.187Z,99767.74
2017-11-28T13:59:27.927Z,99767.61
2017-11-28T14:01:59.595Z,99767.19
2017-11-28T14:04:31.853Z,99772.09
2017-11-28T14:07:03.901Z,99775.25
2017-11-28T14:09:36.496Z,99777.41
2017-11-28T14:12:08.835Z,99783.60
2017-11-28T14:14:40.594Z,99777.66
2017-11-28T14:17:12.983Z,99772.70
2017-11-28T14:19:45.452Z,99777.21
2017-11-28T14:22:17.524Z,99771.84
2017-11-28T14:24:49.708Z,99780.48
2017-11-28T14:27:21.888Z,99775.91
2017-11-28T14:29:53.945Z,99779.17
2017-11-28T14:32:26.784Z,99777.78
2017-11-28T14:34:58.770Z,99774.26
2017-11-28T14:37:30.891Z,99772.72
2017-11-28T14:40:04.568Z,99768.72
2017-11-28T14:42:36.772Z,99764.34
2017-11-28T14:45:08.859Z,99754.52
2017-11-28T14:47:41.884Z,99753.16
2017-11-28T14:50:14.570Z,99758.75
2017-11-28T14:52:47.181Z,99762.56
2017-11-28T14:55:23.067Z,99768.29
2017-11-28T14:57:56.197Z,99764.34
2017-11-28T15:01:05.305Z,99761.62
2017-11-28T15:03:37.797Z,99763.06
2017-11-28T15:06:14.161Z,99754.49
2017-11-28T15:08:50.662Z,99756.23
2017-11-28T15:11:22.873Z,99755.69
2017-11-28T15:13:59.050Z,99760.20
2017-11-28T15:16:35.788Z,99757.05
2017-11-28T15:19:08.919Z,99755.66
2017-11-28T15:21:41.340Z,99761.17
2017-11-28T15:24:16.766Z,99755.85
2017-11-28T15:26:48.928Z,99751.70
2017-11-28T15:29:21.161Z,99755.70
2017-11-28T15:31:53.276Z,99750.33
2017-11-28T15:34:32.692Z,99750.97
2017-11-28T15:37:05.000Z,99748.13
2017-11-28T15:39:36.937Z,99752.70
2017-11-28T15:42:10.208Z,99756.91
2017-11-28T15:44:42.139Z,99755.70
2017-11-28T15:47:14.330Z,99750.35
2017-11-28T15:49:47.122Z,99743.67
2017-11-28T15:52:19.237Z,99748.16
2017-11-28T15:54:52.043Z,99741.92
2017-11-28T15:57:24.374Z,99743.72
2017-11-28T15:59:56.583Z,99744.89
2017-11-28T16:02:29.707Z,99737.44
2017-11-28T16:05:07.556Z,99737.59
2017-11-28T16:07:43.967Z,99738.89
2017-11-28T16:10:16.885Z,99741.23
2017-11-28T16:12:48.802Z,99738.66
2017-11-28T16:15:21.183Z,99739.16
2017-11-28T16:17:54.949Z,99736.94
2017-11-28T16:20:27.137Z,99733.68
2017-11-28T16:22:59.359Z,99737.47
2017-11-28T16:25:32.411Z,99736.31
2017-11-28T16:28:07.378Z,99731.52
2017-11-28T16:30:39.588Z,99726.98
2017-11-28T16:33:11.611Z,99729.39
2017-11-28T16:35:43.897Z,99727.89
2017-11-28T16:38:16.277Z,99729.73
2017-11-28T16:40:48.897Z,99734.55
2017-11-28T16:43:22.185Z,99729.27
2017-11-28T16:45:54.178Z,99718.81
2017-11-28T16:48:26.065Z,99719.91
2017-11-28T16:50:57.985Z,99724.03
2017-11-28T16:53:30.776Z,99729.97
2017-11-28T16:56:05.423Z,99721.63
2017-11-28T16:58:38.236Z,99722.77
2017-11-28T17:01:10.567Z,99721.17
2017-11-28T17:03:42.802Z,99725.00
2017-11-28T17:06:16.167Z,99728.94
2017-11-28T17:08:49.187Z,99724.89
2017-11-28T17:11:21.252Z,99729.69
2017-11-28T17:14:00.026Z,99730.48
2017-11-28T17:16:33.848Z,99732.13
2017-11-28T17:19:06.465Z,99727.67
2017-11-28T17:21:45.962Z,99724.39
2017-11-28T17:24:31.327Z,99724.31
2017-11-28T17:27:03.761Z,99731.21
2017-11-28T17:29:36.023Z,99732.01
2017-11-28T17:32:08.078Z,99730.05
2017-11-28T17:34:41.274Z,99736.34
2017-11-28T17:37:13.681Z,99735.25
2017-11-28T17:39:46.896Z,99735.95
2017-11-28T17:42:19.097Z,99734.45
2017-11-28T17:44:51.355Z,99730.07
2017-11-28T17:47:23.234Z,99723.05
2017-11-28T17:49:55.506Z,99716.60
2017-11-28T17:52:27.426Z,99711.28
2017-11-28T17:54:59.896Z,99717.16
2017-11-28T17:57:32.432Z,99718.26
2017-11-28T18:00:05.826Z,99717.83
2017-11-28T18:02:39.018Z,99719.22
2017-11-28T18:05:11.935Z,99730.20
2017-11-28T18:07:43.881Z,99725.89
2017-11-28T18:10:16.971Z,99721.98
2017-11-28T18:12:48.908Z,99724.03
2017-11-28T18:15:21.818Z,99725.09
2017-11-28T18:17:53.804Z,99721.81
2017-11-28T18:20:26.044Z,99718.94
2017-11-28T18:22:58.212Z,99722.94
2017-11-28T18:25:31.018Z,99712.03
2017-11-28T18:28:03.955Z,99712.80
2017-11-28T18:30:36.290Z,99710.83
2017-11-28T18:33:08.520Z,99714.88
2017-11-28T18:35:40.651Z,99719.34
2017-11-28T18:38:13.558Z,99724.55
2017-11-28T18:40:45.801Z,99716.87
2017-11-28T18:43:17.663Z,99718.63
2017-11-28T18:45:50.427Z,99718.27
2017-11-28T18:48:22.491Z,99711.68
2017-11-28T18:50:54.448Z,99715.02
2017-11-28T18:53:26.362Z,99715.58
2017-11-28T18:55:58.660Z,99714.73
2017-11-28T18:58:31.869Z,99709.12
2017-11-28T19:01:05.931Z,99710.65
2017-11-28T19:03:40.915Z,99705.33
2017-11-28T19:06:14.533Z,99704.67
2017-11-28T19:08:45.954Z,99704.17
2017-11-28T19:11:17.406Z,99706.22
2017-11-28T19:13:49.122Z,99707.95
2017-11-28T19:16:20.729Z,99702.31
2017-11-28T19:18:52.337Z,99700.77
2017-11-28T19:21:24.139Z,99702.33
2017-11-28T19:23:55.594Z,99696.67
2017-11-28T19:26:27.719Z,99697.17
2017-11-28T19:28:59.153Z,99700.31
2017-11-28T19:31:30.776Z,99709.64
2017-11-28T19:34:04.756Z,99701.32
2017-11-28T19:36:37.606Z,99704.48
2017-11-28T19:39:09.007Z,99696.81
2017-11-28T19:41:41.646Z,99697.14
2017-11-28T19:44:13.731Z,99692.09
2017-11-28T19:46:45.271Z,99697.48
2017-11-28T19:49:30.852Z,99690.43
2017-11-28T19:52:11.277Z,99684.23
2017-11-28T19:54:43.930Z,99684.51
2017-11-28T19:57:15.633Z,99684.21
2017-11-28T19:59:47.478Z,99686.61
2017-11-28T20:02:21.586Z,99688.47
2017-11-28T20:04:53.187Z,99685.33
2017-11-28T20:07:25.688Z,99684.69
2017-11-28T20:09:57.628Z,99686.01
2017-11-28T20:12:29.317Z,99686.59
2017-11-28T20:15:01.334Z,99686.56
2017-11-28T20:17:33.030Z,99681.53
2017-11-28T20:20:09.292Z,99685.23
2017-11-28T20:22:40.660Z,99688.78
2017-11-28T20:25:13.614Z,99690.86
2017-11-28T20:27:45.105Z,99689.86
2017-11-28T20:30:16.653Z,99687.80
2017-11-28T20:32:55.660Z,99685.79
2017-11-28T20:38:25.114Z,99693.87
2017-11-28T20:40:56.507Z,99691.02
2017-11-28T20:43:27.941Z,99690.53
2017-11-28T20:45:59.736Z,99701.54
2017-11-28T20:48:31.392Z,99702.51
2017-11-28T20:51:04.823Z,99706.92
2017-11-28T20:53:36.448Z,99700.22
2017-11-28T20:56:08.025Z,99694.11
2017-11-28T20:58:39.388Z,99691.91
2017-11-28T21:01:11.113Z,99695.61
2017-11-28T21:03:42.887Z,99690.99
2017-11-28T21:06:14.232Z,99696.26
2017-11-28T21:08:45.866Z,99699.37
2017-11-28T21:11:17.653Z,99699.81
2017-11-28T21:13:49.127Z,99704.07
2017-11-28T21:16:20.797Z,99703.22
2017-11-28T21:18:52.179Z,99700.89
2017-11-28T21:21:23.866Z,99696.01
2017-11-28T21:23:55.233Z,99696.09
2017-11-28T21:26:26.704Z,99691.67
2017-11-28T21:28:58.429Z,99696.73
2017-11-28T21:31:30.543Z,99698.11
2017-11-28T21:34:03.792Z,99692.72
2017-11-28T21:36:35.473Z,99691.89
2017-11-28T21:39:07.473Z,99695.55
2017-11-28T21:41:38.913Z,99691.03
2017-11-28T21:44:11.740Z,99691.20
2017-11-28T21:46:43.144Z,99689.48
2017-11-28T21:49:14.557Z,99685.33
2017-11-28T21:51:46.012Z,99681.78
2017-11-28T21:54:17.826Z,99685.17
2017-11-28T21:56:49.385Z,99676.10
2017-11-28T21:59:20.744Z,99675.68
2017-11-28T22:01:52.401Z,99683.39
2017-11-28T22:04:23.791Z,99691.73
2017-11-28T22:06:55.129Z,99689.19
2017-11-28T22:09:26.854Z,99691.91
2017-11-28T22:11:58.529Z,99687.88
2017-11-28T22:14:30.339Z,99694.06
2017-11-28T22:17:01.910Z,99694.34
2017-11-28T22:19:33.336Z,99699.27
2017-11-28T22:22:06.752Z,99704.35
2017-11-28T22:24:38.233Z,99703.05
2017-11-28T22:27:09.915Z,99702.02
2017-11-28T22:29:41.285Z,99698.56
2017-11-28T22:32:14.349Z,99705.32
2017-11-28T22:34:46.471Z,99698.66
2017-11-28T22:37:17.970Z,99702.97
2017-11-28T22:39:50.780Z,99698.63
2017-11-28T22:42:24.082Z,99705.89
2017-11-28T22:44:57.816Z,99702.52
2017-11-28T22:47:31.006Z,99702.69
2017-11-28T22:50:05.445Z,99699.00
2017-11-28T22:52:37.043Z,99695.05
2017-11-28T22:55:14.403Z,99694.65
2017-11-28T22:57:46.128Z,99689.88
2017-11-28T23:00:18.430Z,99681.45
2017-11-28T23:03:53.030Z,99685.81
2017-11-28T23:06:24.380Z,99686.84
2017-11-28T23:08:55.732Z,99685.45
2017-11-28T23:11:27.371Z,99677.12
2017-11-28T23:14:02.950Z,99677.52
2017-11-28T23:16:34.725Z,99674.44
2017-11-28T23:19:07.081Z,99682.07
2017-11-28T23:21:38.622Z,99687.27
2017-11-28T23:24:10.481Z,99687.05
2017-11-28T23:26:41.889Z,99684.55
2017-11-28T23:29:13.303Z,99683.75
2017-11-28T23:31:44.966Z,99675.23
2017-11-28T23:34:16.480Z,99680.02
2017-11-28T23:36:47.809Z,99679.38
2017-11-28T23:39:19.581Z,99686.02
2017-11-28T23:41:51.088Z,99683.80
2017-11-28T23:44:22.501Z,99678.28
2017-11-28T23:46:54.114Z,99669.44
2017-11-28T23:49:25.539Z,99674.90
2017-11-28T23:51:57.279Z,99662.32
2017-11-28T23:54:28.659Z,99654.52
2017-11-28T23:57:00.006Z,99654.50
2017-11-28T23:59:31.776Z,99653.97
